createdAt,value
2023-02-02T00:00:22.463Z,101539.47
2023-02-02T00:05:24.151Z,101542.44
2023-02-02T00:10:25.683Z,101538.66
2023-02-02T00:15:26.986Z,101553.75
2023-02-02T00:20:29.300Z,101544.31
2023-02-02T00:25:30.667Z,101551.44
2023-02-02T00:30:32.044Z,101554.13
2023-02-02T00:35:33.370Z,101550.94
2023-02-02T00:40:34.674Z,101552.44
2023-02-02T00:45:36.310Z,101556.66
2023-02-02T00:50:37.636Z,101538.09
2023-02-02T00:55:39.050Z,101540.75
2023-02-02T01:00:40.479Z,101551.16
2023-02-02T01:05:41.837Z,101549.66
2023-02-02T01:10:43.154Z,101549.81
2023-02-02T01:15:44.477Z,101530.34
2023-02-02T01:20:45.789Z,101525.44
2023-02-02T01:25:52.548Z,101529.03
2023-02-02T01:30:53.922Z,101538.31
2023-02-02T01:35:55.905Z,101531.97
2023-02-02T01:40:57.831Z,101537.84
2023-02-02T01:45:59.330Z,101546.63
2023-02-02T01:51:03.656Z,101558.81
2023-02-02T01:56:06.754Z,101560.09
2023-02-02T02:01:08.208Z,101569.75
2023-02-02T02:06:15.221Z,101561.28
2023-02-02T02:11:16.619Z,101571.56
2023-02-02T02:16:20.748Z,101570.34
2023-02-02T02:22:03.035Z,101573.63
2023-02-02T02:27:10.200Z,101568.94
2023-02-02T02:32:31.092Z,101565.16
2023-02-02T02:37:47.735Z,101576.75
2023-02-02T02:42:52.191Z,101575.69
2023-02-02T02:47:54.334Z,101571.56
2023-02-02T02:53:16.169Z,101570.28
2023-02-02T02:58:46.956Z,101562.13
2023-02-02T03:03:54.409Z,101560.31
2023-02-02T03:09:00.394Z,101575.63
2023-02-02T03:14:01.939Z,101570.94
2023-02-02T03:19:04.562Z,101567.53
2023-02-02T03:24:06.068Z,101564.56
2023-02-02T03:29:07.400Z,101571.84
2023-02-02T03:34:08.723Z,101576.53
2023-02-02T03:39:10.057Z,101573.88
2023-02-02T03:44:11.364Z,101563.25
2023-02-02T03:49:12.722Z,101570.50
2023-02-02T03:54:14.373Z,101573.03
2023-02-02T03:59:15.689Z,101576.88
2023-02-02T04:04:17.030Z,101583.47
2023-02-02T04:09:18.428Z,101587.41
2023-02-02T04:14:20.107Z,101585.25
2023-02-02T04:19:21.442Z,101594.59
2023-02-02T04:24:23.411Z,101592.88
2023-02-02T04:29:26.240Z,101599.59
2023-02-02T04:34:28.116Z,101607.31
2023-02-02T04:39:31.080Z,101613.44
2023-02-02T04:44:32.493Z,101607.19
2023-02-02T04:49:33.823Z,101618.50
2023-02-02T04:54:35.148Z,101621.97
2023-02-02T04:59:36.534Z,101624.97
2023-02-02T05:04:37.942Z,101631.09
2023-02-02T05:09:39.257Z,101626.88
2023-02-02T05:14:40.592Z,101630.28
2023-02-02T05:19:42.123Z,101632.88
2023-02-02T05:24:43.486Z,101626.31
2023-02-02T05:29:46.569Z,101624.28
2023-02-02T05:34:47.953Z,101632.34
2023-02-02T05:39:50.772Z,101640.25
2023-02-02T05:44:52.083Z,101655.56
2023-02-02T05:49:53.429Z,101643.50
2023-02-02T05:54:54.821Z,101646.63
2023-02-02T05:59:56.378Z,101647.13
2023-02-02T06:04:57.689Z,101642.75
2023-02-02T06:09:59.268Z,101638.59
2023-02-02T06:15:00.660Z,101638.22
2023-02-02T06:20:02.068Z,101641.34
2023-02-02T06:25:05.510Z,101648.03
2023-02-02T06:30:07.499Z,101639.28
2023-02-02T06:35:08.983Z,101640.91
2023-02-02T06:40:10.625Z,101663.28
2023-02-02T06:45:12.229Z,101654.00
2023-02-02T06:50:13.704Z,101666.19
2023-02-02T06:55:15.152Z,101671.91
2023-02-02T07:00:16.663Z,101676.66
2023-02-02T07:05:19.554Z,101680.75
2023-02-02T07:11:12.800Z,101681.66
2023-02-02T07:15:42.309Z,101689.16
2023-02-02T07:20:43.665Z,101682.34
2023-02-02T07:25:44.991Z,101690.13
2023-02-02T07:30:46.350Z,101687.53
2023-02-02T07:35:47.678Z,101679.16
2023-02-02T07:40:49.070Z,101686.78
2023-02-02T07:45:50.389Z,101685.00
2023-02-02T07:50:51.724Z,101689.50
2023-02-02T07:55:53.214Z,101699.59
2023-02-02T08:00:54.574Z,101702.13
2023-02-02T08:05:56.493Z,101711.88
2023-02-02T08:10:57.832Z,101704.72
2023-02-02T08:15:59.170Z,101717.44
2023-02-02T08:21:01.177Z,101711.56
2023-02-02T08:26:12.941Z,101708.38
2023-02-02T08:31:16.702Z,101711.34
2023-02-02T08:36:19.354Z,101720.41
2023-02-02T08:41:21.948Z,101718.63
2023-02-02T08:46:23.395Z,101723.03
2023-02-02T08:51:24.790Z,101727.53
2023-02-02T08:56:26.155Z,101738.63
2023-02-02T09:01:28.761Z,101732.16
2023-02-02T09:06:37.637Z,101739.09
2023-02-02T09:11:38.971Z,101741.41
2023-02-02T09:16:40.783Z,101739.50
2023-02-02T09:21:42.190Z,101747.84
2023-02-02T09:26:44.074Z,101752.03
2023-02-02T09:31:45.634Z,101756.31
2023-02-02T09:36:47.727Z,101766.34
2023-02-02T09:42:05.405Z,101773.84
2023-02-02T09:47:09.714Z,101785.91
2023-02-02T09:52:16.463Z,101789.75
2023-02-02T09:57:20.899Z,101800.28
2023-02-02T10:02:24.711Z,101809.16
2023-02-02T10:07:47.043Z,101814.09
2023-02-02T10:13:05.956Z,101819.75
2023-02-02T10:18:15.205Z,101817.09
2023-02-02T10:23:22.575Z,101816.81
2023-02-02T10:28:34.238Z,101811.09
2023-02-02T10:33:39.154Z,101822.78
2023-02-02T10:38:47.731Z,101819.72
2023-02-02T10:43:54.588Z,101822.56
2023-02-02T10:49:22.208Z,101829.72
2023-02-02T10:54:55.774Z,101825.97
2023-02-02T11:00:10.861Z,101824.88
2023-02-02T11:05:39.160Z,101833.31
2023-02-02T11:10:40.838Z,101833.50
2023-02-02T11:15:42.457Z,101835.84
2023-02-02T11:20:46.518Z,101828.09
2023-02-02T11:25:57.501Z,101828.94
2023-02-02T11:30:59.336Z,101822.53
2023-02-02T11:36:02.361Z,101832.34
2023-02-02T11:41:11.031Z,101830.75
2023-02-02T11:46:21.391Z,101836.56
2023-02-02T11:51:24.437Z,101820.53
2023-02-02T11:56:26.814Z,101823.13
2023-02-02T12:01:28.307Z,101829.59
2023-02-02T12:06:32.468Z,101837.78
2023-02-02T12:11:43.537Z,101825.91
2023-02-02T12:16:53.415Z,101821.31
2023-02-02T12:22:21.604Z,101822.22
2023-02-02T12:27:25.774Z,101821.47
2023-02-02T12:32:27.099Z,101817.19
2023-02-02T12:37:39.581Z,101831.72
2023-02-02T12:42:47.853Z,101827.34
2023-02-02T12:47:49.172Z,101825.69
2023-02-02T12:52:59.540Z,101816.97
2023-02-02T12:58:19.727Z,101824.84
2023-02-02T13:03:27.140Z,101818.81
2023-02-02T13:08:32.989Z,101827.72
2023-02-02T13:13:36.816Z,101835.50
2023-02-02T13:18:46.483Z,101832.53
2023-02-02T13:23:50.409Z,101843.16
2023-02-02T13:29:10.164Z,101846.78
2023-02-02T13:34:21.007Z,101858.03
2023-02-02T13:39:27.919Z,101856.41
2023-02-02T13:44:35.439Z,101866.19
2023-02-02T13:49:47.172Z,101870.44
2023-02-02T13:55:13.355Z,101869.72
2023-02-02T14:00:20.564Z,101877.16
2023-02-02T14:05:24.215Z,101873.56
2023-02-02T14:10:28.832Z,101873.34
2023-02-02T14:15:40.943Z,101871.97
2023-02-02T14:20:44.034Z,101872.75
2023-02-02T14:25:45.372Z,101866.03
2023-02-02T14:31:06.739Z,101863.44
2023-02-02T14:36:12.713Z,101873.94
2023-02-02T14:41:51.717Z,101875.25
2023-02-02T14:46:53.111Z,101873.09
2023-02-02T14:51:56.373Z,101864.22
2023-02-02T14:57:02.944Z,101868.72
2023-02-02T15:02:14.267Z,101870.47
2023-02-02T15:07:35.996Z,101881.44
2023-02-02T15:12:39.748Z,101885.31
2023-02-02T15:17:41.336Z,101902.75
2023-02-02T15:22:50.029Z,101904.53
2023-02-02T15:28:11.465Z,101919.50
2023-02-02T15:33:36.917Z,101918.69
2023-02-02T15:38:40.302Z,101922.72
2023-02-02T15:43:41.634Z,101926.44
2023-02-02T15:48:43.952Z,101927.91
2023-02-02T15:53:48.318Z,101929.69
2023-02-02T15:58:50.832Z,101937.13
2023-02-02T16:03:52.197Z,101937.38
2023-02-02T16:08:53.557Z,101940.75
2023-02-02T16:14:00.571Z,101943.03
2023-02-02T16:19:03.415Z,101955.03
2023-02-02T16:24:07.206Z,101957.78
2023-02-02T16:29:17.298Z,101969.31
2023-02-02T16:34:38.576Z,101981.72
2023-02-02T16:39:39.918Z,101971.72
2023-02-02T16:44:45.265Z,101981.03
2023-02-02T16:49:46.609Z,101993.25
2023-02-02T16:54:55.032Z,101995.75
2023-02-02T17:00:01.613Z,101998.91
2023-02-02T17:05:06.006Z,102001.91
2023-02-02T17:10:16.425Z,102012.34
2023-02-02T17:15:17.863Z,102012.66
2023-02-02T17:20:19.405Z,102009.69
2023-02-02T17:25:33.001Z,102017.50
2023-02-02T17:30:34.409Z,102026.06
2023-02-02T17:35:52.695Z,102038.19
2023-02-02T17:40:55.606Z,102037.31
2023-02-02T17:50:58.742Z,102037.00
2023-02-02T17:56:00.074Z,102028.97
2023-02-02T18:01:01.992Z,102035.50
2023-02-02T18:06:03.793Z,102035.81
2023-02-02T18:11:05.254Z,102029.78
2023-02-02T18:16:06.829Z,102042.63
2023-02-02T18:21:11.989Z,102046.91
2023-02-02T18:26:14.879Z,102043.03
2023-02-02T18:31:19.370Z,102051.66
2023-02-02T18:36:21.440Z,102050.03
2023-02-02T18:41:22.875Z,102046.75
2023-02-02T18:46:24.372Z,102043.78
2023-02-02T18:51:26.072Z,102051.97
2023-02-02T18:56:28.164Z,102048.38
2023-02-02T19:01:30.087Z,102050.41
2023-02-02T19:06:50.140Z,102040.31
2023-02-02T19:11:54.719Z,102031.41
2023-02-02T19:16:59.561Z,102033.66
2023-02-02T19:22:03.496Z,102032.00
2023-02-02T19:27:14.607Z,102035.13
2023-02-02T19:32:23.449Z,102039.50
2023-02-02T19:37:24.794Z,102038.56
2023-02-02T19:42:26.251Z,102037.31
2023-02-02T19:47:30.365Z,102059.94
2023-02-02T19:52:32.036Z,102059.78
2023-02-02T19:57:36.561Z,102061.81
2023-02-02T20:02:43.663Z,102048.91
2023-02-02T20:07:45.434Z,102060.88
2023-02-02T20:12:46.928Z,102063.34
2023-02-02T20:17:48.258Z,102075.56
2023-02-02T20:22:49.590Z,102066.91
2023-02-02T20:27:51.032Z,102084.50
2023-02-02T20:32:55.246Z,102078.31
2023-02-02T20:37:56.546Z,102067.88
2023-02-02T20:42:58.579Z,102066.53
2023-02-02T20:47:59.899Z,102057.56
2023-02-02T20:53:01.236Z,102061.84
2023-02-02T20:58:03.482Z,102067.22
2023-02-02T21:03:04.925Z,102066.81
2023-02-02T21:08:07.052Z,102079.81
2023-02-02T21:13:08.410Z,102082.72
2023-02-02T21:18:09.715Z,102091.50
2023-02-02T21:23:11.034Z,102092.69
2023-02-02T21:28:12.414Z,102085.31
2023-02-02T21:33:13.772Z,102087.41
2023-02-02T21:38:15.384Z,102082.84
2023-02-02T21:43:17.586Z,102073.41
2023-02-02T21:48:18.895Z,102080.78
2023-02-02T21:53:21.892Z,102081.00
2023-02-02T21:58:23.313Z,102099.25
2023-02-02T22:03:27.145Z,102103.28
2023-02-02T22:08:31.185Z,102108.22
2023-02-02T22:13:34.418Z,102114.03
2023-02-02T22:18:35.755Z,102110.91
2023-02-02T22:23:38.648Z,102111.19
2023-02-02T22:28:40.065Z,102113.00
2023-02-02T22:33:41.446Z,102112.31
2023-02-02T22:38:42.832Z,102095.34
2023-02-02T22:43:44.187Z,102103.69
2023-02-02T22:48:45.515Z,102103.06
2023-02-02T22:53:47.315Z,102101.16
2023-02-02T22:58:48.634Z,102110.16
2023-02-02T23:03:49.957Z,102105.91
2023-02-02T23:08:51.305Z,102116.59
2023-02-02T23:13:52.670Z,102116.31
2023-02-02T23:18:54.017Z,102117.56
2023-02-02T23:23:55.918Z,102121.38
2023-02-02T23:28:57.340Z,102114.81
2023-02-02T23:33:58.728Z,102104.94
2023-02-02T23:39:00.041Z,102095.63
2023-02-02T23:44:01.443Z,102099.72
2023-02-02T23:49:02.818Z,102099.16
2023-02-02T23:54:06.382Z,102099.00
2023-02-02T23:59:07.980Z,102080.91
